PWSweather.com
Personal Weather Stations
Station Observations
KILMORRI1
Goose Lake, Morris, IL 60450

Goose LakeMorris, IL 60450

Lat: 41.34, Lon: -88.3

Elevation: 523

Station Type:

www.gooselakeweather.com

High Low Average
Temperature 59.2°F15.1°C 31.0°F-0.6°C 44.3°F6.8°C
Dew Point 38.4°F3.6°C 27.8°F-2.3°C 33.5°F0.8°C
Winds 10.4 mph 16.7 kmh 1.2 mph 1.9 kmh 4.0 mph SW6.4 kmh SW
Wind Gusts 20.7 mph33.3 kmh 2.3 mph3.7 kmh 7.0 mph11.3 kmh
Humidity 90% 39% 68%
Pressure 30.27 in1025.1 mb 30.04 in1017.3 mb -
Precipitation 0.00 in0.0 mm - -
Hour Temp Dew Point Humidity Winds Wind Gusts Pressure Precip Precip Rate Daily Precip Total
12:00 AM 34.5°F1.4°C 30.1°F-1.1°C 84% 2.3 mph WSW3.7 kmh WSW 3.5 mph5.6 kmh 30.25 in1024.4 mb - 0.00 in0.0 mm 0.00 in0.0 mm
12:10 AM 34.7°F1.5°C 30.1°F-1.1°C 83% 1.2 mph SW1.9 kmh SW 2.3 mph3.7 kmh 30.25 in1024.4 mb - 0.00 in0.0 mm 0.00 in0.0 mm
12:20 AM 34.3°F1.3°C 30.0°F-1.1°C 84% 1.2 mph SW1.9 kmh SW 2.3 mph3.7 kmh 30.25 in1024.4 mb - 0.00 in0.0 mm 0.00 in0.0 mm
12:30 AM 34.2°F1.2°C 29.9°F-1.2°C 84% 1.2 mph SW1.9 kmh SW 2.3 mph3.7 kmh 30.25 in1024.4 mb - 0.00 in0.0 mm 0.00 in0.0 mm
12:40 AM 33.6°F0.9°C 29.6°F-1.3°C 85% 1.2 mph SW1.9 kmh SW 2.3 mph3.7 kmh 30.25 in1024.4 mb - 0.00 in0.0 mm 0.00 in0.0 mm
12:50 AM 33.3°F0.7°C 29.3°F-1.5°C 85% 1.2 mph SW1.9 kmh SW 2.3 mph3.7 kmh 30.26 in1024.7 mb - 0.00 in0.0 mm 0.00 in0.0 mm
01:00 AM 33.5°F0.8°C 29.7°F-1.3°C 86% 1.2 mph SW1.9 kmh SW 2.3 mph3.7 kmh 30.26 in1024.7 mb - 0.00 in0.0 mm 0.00 in0.0 mm
01:10 AM 33.3°F0.7°C 29.6°F-1.3°C 86% 1.2 mph SW1.9 kmh SW 3.5 mph5.6 kmh 30.26 in1024.7 mb - 0.00 in0.0 mm 0.00 in0.0 mm
01:20 AM 33.3°F0.7°C 29.6°F-1.3°C 86% 1.2 mph SSW1.9 kmh SSW 3.5 mph5.6 kmh 30.26 in1024.7 mb - 0.00 in0.0 mm 0.00 in0.0 mm
01:30 AM 33.3°F0.7°C 29.6°F-1.3°C 86% 1.2 mph SW1.9 kmh SW 3.5 mph5.6 kmh 30.26 in1024.7 mb - 0.00 in0.0 mm 0.00 in0.0 mm
01:40 AM 33.1°F0.6°C 29.4°F-1.4°C 86% 2.3 mph SW3.7 kmh SW 3.5 mph5.6 kmh 30.27 in1025.1 mb - 0.00 in0.0 mm 0.00 in0.0 mm
01:50 AM 32.8°F0.4°C 29.1°F-1.6°C 86% 1.2 mph SW1.9 kmh SW 2.3 mph3.7 kmh 30.27 in1025.1 mb - 0.00 in0.0 mm 0.00 in0.0 mm
02:00 AM 32.8°F0.4°C 29.3°F-1.5°C 87% 1.2 mph SSW1.9 kmh SSW 3.5 mph5.6 kmh 30.27 in1025.1 mb - 0.00 in0.0 mm 0.00 in0.0 mm
02:10 AM 32.7°F0.4°C 29.3°F-1.5°C 87% 1.2 mph SW1.9 kmh SW 2.3 mph3.7 kmh 30.27 in1025.1 mb - 0.00 in0.0 mm 0.00 in0.0 mm
02:20 AM 32.7°F0.4°C 29.3°F-1.5°C 87% 1.2 mph SW1.9 kmh SW 3.5 mph5.6 kmh 30.27 in1025.1 mb - 0.00 in0.0 mm 0.00 in0.0 mm
02:30 AM 32.7°F0.4°C 29.2°F-1.6°C 87% 2.3 mph SSW3.7 kmh SSW 3.5 mph5.6 kmh 30.27 in1025.1 mb - 0.00 in0.0 mm 0.00 in0.0 mm
02:40 AM 32.4°F0.2°C 29.0°F-1.7°C 87% 1.2 mph SSW1.9 kmh SSW 3.5 mph5.6 kmh 30.27 in1025.1 mb - 0.00 in0.0 mm 0.00 in0.0 mm
02:50 AM 32.3°F0.2°C 28.8°F-1.8°C 87% 2.3 mph SSW3.7 kmh SSW 3.5 mph5.6 kmh 30.27 in1025.1 mb - 0.00 in0.0 mm 0.00 in0.0 mm
03:00 AM 32.4°F0.2°C 28.7°F-1.8°C 86% 2.3 mph S3.7 kmh S 3.5 mph5.6 kmh 30.27 in1025.1 mb - 0.00 in0.0 mm 0.00 in0.0 mm
03:10 AM 32.3°F0.2°C 28.6°F-1.9°C 86% 3.5 mph SSW5.6 kmh SSW 3.5 mph5.6 kmh 30.27 in1025.1 mb - 0.00 in0.0 mm 0.00 in0.0 mm
03:20 AM 32.4°F0.2°C 28.7°F-1.8°C 86% 1.2 mph SSW1.9 kmh SSW 4.6 mph7.4 kmh 30.26 in1024.7 mb - 0.00 in0.0 mm 0.00 in0.0 mm
03:30 AM 32.4°F0.2°C 29.0°F-1.7°C 87% 2.3 mph SW3.7 kmh SW 3.5 mph5.6 kmh 30.26 in1024.7 mb - 0.00 in0.0 mm 0.00 in0.0 mm
03:40 AM 32.5°F0.3°C 28.8°F-1.8°C 86% 1.2 mph SW1.9 kmh SW 3.5 mph5.6 kmh 30.26 in1024.7 mb - 0.00 in0.0 mm 0.00 in0.0 mm
03:50 AM 32.0°F0.0°C 28.6°F-1.9°C 87% 1.2 mph SW1.9 kmh SW 3.5 mph5.6 kmh 30.26 in1024.7 mb - 0.00 in0.0 mm 0.00 in0.0 mm
04:00 AM 32.2°F0.1°C 28.8°F-1.8°C 87% 1.2 mph SSW1.9 kmh SSW 3.5 mph5.6 kmh 30.26 in1024.7 mb - 0.00 in0.0 mm 0.00 in0.0 mm
04:10 AM 32.1°F0.1°C 28.7°F-1.8°C 87% 1.2 mph SSW1.9 kmh SSW 3.5 mph5.6 kmh 30.26 in1024.7 mb - 0.00 in0.0 mm 0.00 in0.0 mm
04:20 AM 31.6°F-0.2°C 28.5°F-1.9°C 88% 1.2 mph SSW1.9 kmh SSW 3.5 mph5.6 kmh 30.26 in1024.7 mb - 0.00 in0.0 mm 0.00 in0.0 mm
04:30 AM 31.5°F-0.3°C 28.4°F-2.0°C 88% 3.5 mph S5.6 kmh S 3.5 mph5.6 kmh 30.26 in1024.7 mb - 0.00 in0.0 mm 0.00 in0.0 mm
04:40 AM 31.7°F-0.2°C 28.6°F-1.9°C 88% 2.3 mph SSW3.7 kmh SSW 4.6 mph7.4 kmh 30.25 in1024.4 mb - 0.00 in0.0 mm 0.00 in0.0 mm
04:50 AM 31.7°F-0.2°C 28.5°F-1.9°C 88% 2.3 mph SSW3.7 kmh SSW 5.8 mph9.3 kmh 30.26 in1024.7 mb - 0.00 in0.0 mm 0.00 in0.0 mm
05:00 AM 31.6°F-0.2°C 28.5°F-1.9°C 88% 3.5 mph SSW5.6 kmh SSW 4.6 mph7.4 kmh 30.25 in1024.4 mb - 0.00 in0.0 mm 0.00 in0.0 mm
05:10 AM 31.3°F-0.4°C 28.2°F-2.1°C 88% 2.3 mph S3.7 kmh S 4.6 mph7.4 kmh 30.25 in1024.4 mb - 0.00 in0.0 mm 0.00 in0.0 mm
05:20 AM 31.0°F-0.6°C 27.8°F-2.3°C 88% 2.3 mph SSW3.7 kmh SSW 3.5 mph5.6 kmh 30.25 in1024.4 mb - 0.00 in0.0 mm 0.00 in0.0 mm
05:30 AM 31.2°F-0.4°C 28.3°F-2.1°C 89% 2.3 mph S3.7 kmh S 4.6 mph7.4 kmh 30.26 in1024.7 mb - 0.00 in0.0 mm 0.00 in0.0 mm
05:40 AM 31.2°F-0.4°C 28.3°F-2.1°C 89% 2.3 mph SSW3.7 kmh SSW 4.6 mph7.4 kmh 30.26 in1024.7 mb - 0.00 in0.0 mm 0.00 in0.0 mm
05:50 AM 31.3°F-0.4°C 28.5°F-1.9°C 89% 2.3 mph SSW3.7 kmh SSW 3.5 mph5.6 kmh 30.26 in1024.7 mb - 0.00 in0.0 mm 0.00 in0.0 mm
06:00 AM 31.5°F-0.3°C 28.6°F-1.9°C 89% 2.3 mph S3.7 kmh S 3.5 mph5.6 kmh 30.25 in1024.4 mb - 0.00 in0.0 mm 0.00 in0.0 mm
06:10 AM 31.5°F-0.3°C 28.6°F-1.9°C 89% 2.3 mph SSW3.7 kmh SSW 4.6 mph7.4 kmh 30.25 in1024.4 mb - 0.00 in0.0 mm 0.00 in0.0 mm
06:20 AM 31.8°F-0.1°C 28.9°F-1.7°C 89% 3.5 mph SSW5.6 kmh SSW 5.8 mph9.3 kmh 30.25 in1024.4 mb - 0.00 in0.0 mm 0.00 in0.0 mm
06:30 AM 31.6°F-0.2°C 28.8°F-1.8°C 89% 1.2 mph SW1.9 kmh SW 2.3 mph3.7 kmh 30.24 in1024.0 mb - 0.00 in0.0 mm 0.00 in0.0 mm
06:40 AM 31.6°F-0.2°C 28.7°F-1.8°C 89% 2.3 mph S3.7 kmh S 3.5 mph5.6 kmh 30.24 in1024.0 mb - 0.00 in0.0 mm 0.00 in0.0 mm
06:50 AM 31.4°F-0.3°C 28.5°F-1.9°C 89% 1.2 mph SSW1.9 kmh SSW 3.5 mph5.6 kmh 30.24 in1024.0 mb - 0.00 in0.0 mm 0.00 in0.0 mm
07:00 AM 31.4°F-0.3°C 28.5°F-1.9°C 89% 1.2 mph SSW1.9 kmh SSW 3.5 mph5.6 kmh 30.24 in1024.0 mb - 0.00 in0.0 mm 0.00 in0.0 mm
07:10 AM 31.1°F-0.5°C 28.2°F-2.1°C 89% 1.2 mph SSW1.9 kmh SSW 3.5 mph5.6 kmh 30.24 in1024.0 mb - 0.00 in0.0 mm 0.00 in0.0 mm
07:20 AM 31.2°F-0.4°C 28.6°F-1.9°C 90% 1.2 mph SSW1.9 kmh SSW 2.3 mph3.7 kmh 30.24 in1024.0 mb - 0.00 in0.0 mm 0.00 in0.0 mm
07:30 AM 31.4°F-0.3°C 28.8°F-1.8°C 90% 1.2 mph SSW1.9 kmh SSW 2.3 mph3.7 kmh 30.24 in1024.0 mb - 0.00 in0.0 mm 0.00 in0.0 mm
07:40 AM 31.7°F-0.2°C 29.1°F-1.6°C 90% 1.2 mph S1.9 kmh S 3.5 mph5.6 kmh 30.24 in1024.0 mb - 0.00 in0.0 mm 0.00 in0.0 mm
07:50 AM 32.3°F0.2°C 29.7°F-1.3°C 90% 2.3 mph S3.7 kmh S 4.6 mph7.4 kmh 30.24 in1024.0 mb - 0.00 in0.0 mm 0.00 in0.0 mm
08:00 AM 32.8°F0.4°C 29.9°F-1.2°C 89% 2.3 mph S3.7 kmh S 3.5 mph5.6 kmh 30.24 in1024.0 mb - 0.00 in0.0 mm 0.00 in0.0 mm
08:10 AM 33.5°F0.8°C 30.4°F-0.9°C 88% 2.3 mph SW3.7 kmh SW 3.5 mph5.6 kmh 30.24 in1024.0 mb - 0.00 in0.0 mm 0.00 in0.0 mm
08:20 AM 34.2°F1.2°C 30.8°F-0.7°C 87% 2.3 mph S3.7 kmh S 3.5 mph5.6 kmh 30.24 in1024.0 mb - 0.00 in0.0 mm 0.00 in0.0 mm
08:30 AM 35.2°F1.8°C 31.4°F-0.3°C 86% 1.2 mph SSW1.9 kmh SSW 3.5 mph5.6 kmh 30.23 in1023.7 mb - 0.00 in0.0 mm 0.00 in0.0 mm
08:40 AM 36.0°F2.2°C 31.7°F-0.2°C 84% 2.3 mph SSW3.7 kmh SSW 3.5 mph5.6 kmh 30.23 in1023.7 mb - 0.00 in0.0 mm 0.00 in0.0 mm
08:50 AM 37.2°F2.9°C 32.5°F0.3°C 83% 2.3 mph SW3.7 kmh SW 3.5 mph5.6 kmh 30.23 in1023.7 mb - 0.00 in0.0 mm 0.00 in0.0 mm
09:00 AM 38.7°F3.7°C 33.0°F0.6°C 80% 2.3 mph SW3.7 kmh SW 8.1 mph13.0 kmh 30.23 in1023.7 mb - 0.00 in0.0 mm 0.00 in0.0 mm
09:10 AM 39.8°F4.3°C 33.8°F1.0°C 79% 2.3 mph SSW3.7 kmh SSW 4.6 mph7.4 kmh 30.22 in1023.4 mb - 0.00 in0.0 mm 0.00 in0.0 mm
09:20 AM 40.4°F4.7°C 33.5°F0.8°C 76% 5.8 mph SSW9.3 kmh SSW 8.1 mph13.0 kmh 30.22 in1023.4 mb - 0.00 in0.0 mm 0.00 in0.0 mm
09:30 AM 41.7°F5.4°C 34.1°F1.2°C 74% 4.6 mph SW7.4 kmh SW 6.9 mph11.1 kmh 30.22 in1023.4 mb - 0.00 in0.0 mm 0.00 in0.0 mm
09:40 AM 42.5°F5.8°C 34.1°F1.2°C 72% 3.5 mph SW5.6 kmh SW 6.9 mph11.1 kmh 30.22 in1023.4 mb - 0.00 in0.0 mm 0.00 in0.0 mm
09:50 AM 43.2°F6.2°C 33.7°F0.9°C 69% 5.8 mph SW9.3 kmh SW 8.1 mph13.0 kmh 30.21 in1023.0 mb - 0.00 in0.0 mm 0.00 in0.0 mm
10:00 AM 44.2°F6.8°C 33.9°F1.1°C 67% 8.1 mph SW13.0 kmh SW 10.4 mph16.7 kmh 30.21 in1023.0 mb - 0.00 in0.0 mm 0.00 in0.0 mm
10:10 AM 45.1°F7.3°C 33.6°F0.9°C 64% 4.6 mph SSW7.4 kmh SSW 11.5 mph18.5 kmh 30.21 in1023.0 mb - 0.00 in0.0 mm 0.00 in0.0 mm
10:20 AM 45.8°F7.7°C 33.9°F1.1°C 63% 8.1 mph SW13.0 kmh SW 11.5 mph18.5 kmh 30.20 in1022.7 mb - 0.00 in0.0 mm 0.00 in0.0 mm
10:30 AM 46.3°F7.9°C 34.0°F1.1°C 62% 8.1 mph SW13.0 kmh SW 12.7 mph20.4 kmh 30.20 in1022.7 mb - 0.00 in0.0 mm 0.00 in0.0 mm
10:40 AM 46.7°F8.2°C 34.0°F1.1°C 61% 4.6 mph SW7.4 kmh SW 15.0 mph24.1 kmh 30.19 in1022.4 mb - 0.00 in0.0 mm 0.00 in0.0 mm
10:50 AM 47.3°F8.5°C 33.3°F0.7°C 58% 10.4 mph W16.7 kmh W 16.1 mph25.9 kmh 30.19 in1022.4 mb - 0.00 in0.0 mm 0.00 in0.0 mm
11:00 AM 48.1°F8.9°C 34.0°F1.1°C 58% 9.2 mph SW14.8 kmh SW 12.7 mph20.4 kmh 30.18 in1022.0 mb - 0.00 in0.0 mm 0.00 in0.0 mm
11:10 AM 48.7°F9.3°C 33.7°F0.9°C 56% 5.8 mph SW9.3 kmh SW 10.4 mph16.7 kmh 30.18 in1022.0 mb - 0.00 in0.0 mm 0.00 in0.0 mm
11:20 AM 49.2°F9.6°C 33.7°F0.9°C 55% 10.4 mph WSW16.7 kmh WSW 20.7 mph33.3 kmh 30.18 in1022.0 mb - 0.00 in0.0 mm 0.00 in0.0 mm
11:30 AM 49.2°F9.6°C 32.8°F0.4°C 53% 9.2 mph SW14.8 kmh SW 13.8 mph22.2 kmh 30.17 in1021.7 mb - 0.00 in0.0 mm 0.00 in0.0 mm
11:40 AM 50.1°F10.1°C 33.6°F0.9°C 53% 6.9 mph SW11.1 kmh SW 18.4 mph29.6 kmh 30.17 in1021.7 mb - 0.00 in0.0 mm 0.00 in0.0 mm
11:50 AM 50.8°F10.4°C 35.2°F1.8°C 55% 8.1 mph SW13.0 kmh SW 12.7 mph20.4 kmh 30.17 in1021.7 mb - 0.00 in0.0 mm 0.00 in0.0 mm
12:20 PM 52.4°F11.3°C 35.3°F1.8°C 52% 10.4 mph SW16.7 kmh SW 17.3 mph27.8 kmh 30.15 in1021.0 mb - 0.00 in0.0 mm 0.00 in0.0 mm
12:40 PM 53.3°F11.8°C 34.1°F1.2°C 48% 10.4 mph SSW16.7 kmh SSW 15.0 mph24.1 kmh 30.13 in1020.3 mb - 0.00 in0.0 mm 0.00 in0.0 mm
01:30 PM 55.4°F13.0°C 35.5°F1.9°C 47% 9.2 mph SW14.8 kmh SW 13.8 mph22.2 kmh 30.11 in1019.6 mb - 0.00 in0.0 mm 0.00 in0.0 mm
02:00 PM 56.8°F13.8°C 37.3°F2.9°C 48% 8.1 mph SW13.0 kmh SW 13.8 mph22.2 kmh 30.09 in1019.0 mb - 0.00 in0.0 mm 0.00 in0.0 mm
02:10 PM 57.3°F14.1°C 37.2°F2.9°C 47% 6.9 mph SW11.1 kmh SW 13.8 mph22.2 kmh 30.08 in1018.6 mb - 0.00 in0.0 mm 0.00 in0.0 mm
02:20 PM 57.2°F14.0°C 35.4°F1.9°C 44% 9.2 mph W14.8 kmh W 15.0 mph24.1 kmh 30.07 in1018.3 mb - 0.00 in0.0 mm 0.00 in0.0 mm
02:30 PM 57.7°F14.3°C 35.3°F1.8°C 43% 9.2 mph SW14.8 kmh SW 11.5 mph18.5 kmh 30.06 in1017.9 mb - 0.00 in0.0 mm 0.00 in0.0 mm
02:40 PM 57.9°F14.4°C 33.7°F0.9°C 40% 6.9 mph SW11.1 kmh SW 16.1 mph25.9 kmh 30.06 in1017.9 mb - 0.00 in0.0 mm 0.00 in0.0 mm
02:50 PM 58.0°F14.4°C 33.8°F1.0°C 40% 9.2 mph SW14.8 kmh SW 13.8 mph22.2 kmh 30.06 in1017.9 mb - 0.00 in0.0 mm 0.00 in0.0 mm
03:00 PM 58.7°F14.8°C 37.4°F3.0°C 45% 4.6 mph WSW7.4 kmh WSW 10.4 mph16.7 kmh 30.06 in1017.9 mb - 0.00 in0.0 mm 0.00 in0.0 mm
03:10 PM 58.7°F14.8°C 33.8°F1.0°C 39% 6.9 mph SW11.1 kmh SW 11.5 mph18.5 kmh 30.05 in1017.6 mb - 0.00 in0.0 mm 0.00 in0.0 mm
03:20 PM 59.1°F15.1°C 34.1°F1.2°C 39% 4.6 mph S7.4 kmh S 13.8 mph22.2 kmh 30.05 in1017.6 mb - 0.00 in0.0 mm 0.00 in0.0 mm
03:30 PM 59.2°F15.1°C 34.9°F1.6°C 40% 8.1 mph SW13.0 kmh SW 17.3 mph27.8 kmh 30.04 in1017.3 mb - 0.00 in0.0 mm 0.00 in0.0 mm
03:40 PM 58.7°F14.8°C 35.7°F2.1°C 42% 4.6 mph WSW7.4 kmh WSW 8.1 mph13.0 kmh 30.04 in1017.3 mb - 0.00 in0.0 mm 0.00 in0.0 mm
03:50 PM 58.9°F14.9°C 35.9°F2.2°C 42% 4.6 mph SSW7.4 kmh SSW 8.1 mph13.0 kmh 30.04 in1017.3 mb - 0.00 in0.0 mm 0.00 in0.0 mm
04:00 PM 59.2°F15.1°C 34.9°F1.6°C 40% 4.6 mph WSW7.4 kmh WSW 6.9 mph11.1 kmh 30.04 in1017.3 mb - 0.00 in0.0 mm 0.00 in0.0 mm
04:10 PM 58.8°F14.9°C 36.4°F2.4°C 43% 4.6 mph SW7.4 kmh SW 8.1 mph13.0 kmh 30.04 in1017.3 mb - 0.00 in0.0 mm 0.00 in0.0 mm
04:20 PM 58.6°F14.8°C 36.2°F2.3°C 43% 4.6 mph SW7.4 kmh SW 6.9 mph11.1 kmh 30.04 in1017.3 mb - 0.00 in0.0 mm 0.00 in0.0 mm
04:30 PM 58.4°F14.7°C 36.0°F2.2°C 43% 5.8 mph WSW9.3 kmh WSW 10.4 mph16.7 kmh 30.04 in1017.3 mb - 0.00 in0.0 mm 0.00 in0.0 mm
04:40 PM 58.3°F14.6°C 35.9°F2.2°C 43% 4.6 mph SW7.4 kmh SW 6.9 mph11.1 kmh 30.04 in1017.3 mb - 0.00 in0.0 mm 0.00 in0.0 mm
04:50 PM 58.0°F14.4°C 36.2°F2.3°C 44% 3.5 mph SW5.6 kmh SW 9.2 mph14.8 kmh 30.04 in1017.3 mb - 0.00 in0.0 mm 0.00 in0.0 mm
05:00 PM 57.7°F14.3°C 35.3°F1.8°C 43% 6.9 mph SW11.1 kmh SW 11.5 mph18.5 kmh 30.04 in1017.3 mb - 0.00 in0.0 mm 0.00 in0.0 mm
05:10 PM 57.2°F14.0°C 36.6°F2.6°C 46% 2.3 mph SW3.7 kmh SW 6.9 mph11.1 kmh 30.04 in1017.3 mb - 0.00 in0.0 mm 0.00 in0.0 mm
05:20 PM 56.8°F13.8°C 36.2°F2.3°C 46% 3.5 mph SW5.6 kmh SW 6.9 mph11.1 kmh 30.04 in1017.3 mb - 0.00 in0.0 mm 0.00 in0.0 mm
05:30 PM 56.2°F13.4°C 35.7°F2.1°C 46% 4.6 mph SW7.4 kmh SW 10.4 mph16.7 kmh 30.04 in1017.3 mb - 0.00 in0.0 mm 0.00 in0.0 mm
05:40 PM 55.6°F13.1°C 35.7°F2.1°C 47% 3.5 mph SW5.6 kmh SW 5.8 mph9.3 kmh 30.04 in1017.3 mb - 0.00 in0.0 mm 0.00 in0.0 mm
05:50 PM 55.0°F12.8°C 36.7°F2.6°C 50% 3.5 mph WSW5.6 kmh WSW 6.9 mph11.1 kmh 30.04 in1017.3 mb - 0.00 in0.0 mm 0.00 in0.0 mm
06:00 PM 54.4°F12.4°C 36.7°F2.6°C 51% 1.2 mph SW1.9 kmh SW 3.5 mph5.6 kmh 30.04 in1017.3 mb - 0.00 in0.0 mm 0.00 in0.0 mm
06:10 PM 53.5°F11.9°C 36.8°F2.7°C 53% 2.3 mph SW3.7 kmh SW 3.5 mph5.6 kmh 30.04 in1017.3 mb - 0.00 in0.0 mm 0.00 in0.0 mm
06:20 PM 52.2°F11.2°C 37.0°F2.8°C 56% 1.2 mph S1.9 kmh S 3.5 mph5.6 kmh 30.04 in1017.3 mb - 0.00 in0.0 mm 0.00 in0.0 mm
06:30 PM 51.3°F10.7°C 37.4°F3.0°C 59% 1.2 mph SW1.9 kmh SW 3.5 mph5.6 kmh 30.04 in1017.3 mb - 0.00 in0.0 mm 0.00 in0.0 mm
06:40 PM 50.9°F10.5°C 37.1°F2.8°C 59% 3.5 mph SW5.6 kmh SW 4.6 mph7.4 kmh 30.04 in1017.3 mb - 0.00 in0.0 mm 0.00 in0.0 mm
06:50 PM 51.8°F11.0°C 37.1°F2.8°C 57% 4.6 mph SSW7.4 kmh SSW 8.1 mph13.0 kmh 30.05 in1017.6 mb - 0.00 in0.0 mm 0.00 in0.0 mm
07:00 PM 51.7°F10.9°C 36.9°F2.7°C 57% 5.8 mph SW9.3 kmh SW 11.5 mph18.5 kmh 30.05 in1017.6 mb - 0.00 in0.0 mm 0.00 in0.0 mm
07:10 PM 51.6°F10.9°C 36.9°F2.7°C 57% 3.5 mph SW5.6 kmh SW 5.8 mph9.3 kmh 30.05 in1017.6 mb - 0.00 in0.0 mm 0.00 in0.0 mm
07:20 PM 51.2°F10.7°C 37.4°F3.0°C 59% 3.5 mph SSW5.6 kmh SSW 5.8 mph9.3 kmh 30.06 in1017.9 mb - 0.00 in0.0 mm 0.00 in0.0 mm
07:30 PM 50.8°F10.4°C 37.4°F3.0°C 60% 2.3 mph SSW3.7 kmh SSW 6.9 mph11.1 kmh 30.06 in1017.9 mb - 0.00 in0.0 mm 0.00 in0.0 mm
07:40 PM 49.9°F9.9°C 37.0°F2.8°C 61% 1.2 mph SW1.9 kmh SW 3.5 mph5.6 kmh 30.06 in1017.9 mb - 0.00 in0.0 mm 0.00 in0.0 mm
07:50 PM 48.8°F9.3°C 37.1°F2.8°C 64% 2.3 mph SSW3.7 kmh SSW 3.5 mph5.6 kmh 30.06 in1017.9 mb - 0.00 in0.0 mm 0.00 in0.0 mm
08:00 PM 48.0°F8.9°C 36.4°F2.4°C 64% 2.3 mph SW3.7 kmh SW 4.6 mph7.4 kmh 30.06 in1017.9 mb - 0.00 in0.0 mm 0.00 in0.0 mm
08:10 PM 47.8°F8.8°C 36.6°F2.6°C 65% 2.3 mph SSW3.7 kmh SSW 2.3 mph3.7 kmh 30.06 in1017.9 mb - 0.00 in0.0 mm 0.00 in0.0 mm
08:20 PM 47.6°F8.7°C 36.4°F2.4°C 65% 4.6 mph SW7.4 kmh SW 5.8 mph9.3 kmh 30.07 in1018.3 mb - 0.00 in0.0 mm 0.00 in0.0 mm
08:30 PM 47.6°F8.7°C 36.4°F2.4°C 65% 2.3 mph SSW3.7 kmh SSW 3.5 mph5.6 kmh 30.07 in1018.3 mb - 0.00 in0.0 mm 0.00 in0.0 mm
08:40 PM 47.4°F8.6°C 36.6°F2.6°C 66% 3.5 mph SSW5.6 kmh SSW 5.8 mph9.3 kmh 30.07 in1018.3 mb - 0.00 in0.0 mm 0.00 in0.0 mm
08:50 PM 47.5°F8.6°C 36.3°F2.4°C 65% 6.9 mph SW11.1 kmh SW 10.4 mph16.7 kmh 30.07 in1018.3 mb - 0.00 in0.0 mm 0.00 in0.0 mm
09:00 PM 47.4°F8.6°C 36.6°F2.6°C 66% 3.5 mph SW5.6 kmh SW 5.8 mph9.3 kmh 30.07 in1018.3 mb - 0.00 in0.0 mm 0.00 in0.0 mm
09:10 PM 47.5°F8.6°C 36.7°F2.6°C 66% 5.8 mph SW9.3 kmh SW 8.1 mph13.0 kmh 30.07 in1018.3 mb - 0.00 in0.0 mm 0.00 in0.0 mm
09:20 PM 47.8°F8.8°C 36.6°F2.6°C 65% 3.5 mph SW5.6 kmh SW 11.5 mph18.5 kmh 30.08 in1018.6 mb - 0.00 in0.0 mm 0.00 in0.0 mm
09:30 PM 48.1°F8.9°C 36.9°F2.7°C 65% 3.5 mph SSW5.6 kmh SSW 4.6 mph7.4 kmh 30.08 in1018.6 mb - 0.00 in0.0 mm 0.00 in0.0 mm
09:40 PM 47.7°F8.7°C 36.5°F2.5°C 65% 4.6 mph SW7.4 kmh SW 4.6 mph7.4 kmh 30.08 in1018.6 mb - 0.00 in0.0 mm 0.00 in0.0 mm
09:50 PM 47.8°F8.8°C 37.0°F2.8°C 66% 3.5 mph SSW5.6 kmh SSW 6.9 mph11.1 kmh 30.08 in1018.6 mb - 0.00 in0.0 mm 0.00 in0.0 mm
10:00 PM 47.8°F8.8°C 37.0°F2.8°C 66% 4.6 mph SW7.4 kmh SW 8.1 mph13.0 kmh 30.09 in1019.0 mb - 0.00 in0.0 mm 0.00 in0.0 mm
10:10 PM 48.1°F8.9°C 36.9°F2.7°C 65% 5.8 mph SW9.3 kmh SW 8.1 mph13.0 kmh 30.09 in1019.0 mb - 0.00 in0.0 mm 0.00 in0.0 mm
10:20 PM 48.2°F9.0°C 37.0°F2.8°C 65% 3.5 mph SW5.6 kmh SW 5.8 mph9.3 kmh 30.09 in1019.0 mb - 0.00 in0.0 mm 0.00 in0.0 mm
10:30 PM 47.9°F8.8°C 37.1°F2.8°C 66% 4.6 mph SW7.4 kmh SW 6.9 mph11.1 kmh 30.09 in1019.0 mb - 0.00 in0.0 mm 0.00 in0.0 mm
10:40 PM 48.8°F9.3°C 37.5°F3.1°C 65% 5.8 mph WSW9.3 kmh WSW 13.8 mph22.2 kmh 30.09 in1019.0 mb - 0.00 in0.0 mm 0.00 in0.0 mm
10:50 PM 48.5°F9.2°C 37.3°F2.9°C 65% 5.8 mph SW9.3 kmh SW 9.2 mph14.8 kmh 30.09 in1019.0 mb - 0.00 in0.0 mm 0.00 in0.0 mm
11:00 PM 48.1°F8.9°C 37.2°F2.9°C 66% 4.6 mph SW7.4 kmh SW 10.4 mph16.7 kmh 30.09 in1019.0 mb - 0.00 in0.0 mm 0.00 in0.0 mm
11:10 PM 47.8°F8.8°C 37.4°F3.0°C 67% 4.6 mph WSW7.4 kmh WSW 6.9 mph11.1 kmh 30.10 in1019.3 mb - 0.00 in0.0 mm 0.00 in0.0 mm
11:20 PM 47.9°F8.8°C 37.8°F3.2°C 68% 5.8 mph WSW9.3 kmh WSW 8.1 mph13.0 kmh 30.10 in1019.3 mb - 0.00 in0.0 mm 0.00 in0.0 mm
11:30 PM 48.1°F8.9°C 38.0°F3.3°C 68% 3.5 mph WSW5.6 kmh WSW 4.6 mph7.4 kmh 30.10 in1019.3 mb - 0.00 in0.0 mm 0.00 in0.0 mm
11:40 PM 48.3°F9.1°C 37.9°F3.3°C 67% 5.8 mph W9.3 kmh W 8.1 mph13.0 kmh 30.10 in1019.3 mb - 0.00 in0.0 mm 0.00 in0.0 mm
11:50 PM 48.5°F9.2°C 38.0°F3.3°C 67% 4.6 mph WSW7.4 kmh WSW 6.9 mph11.1 kmh 30.10 in1019.3 mb - 0.00 in0.0 mm 0.00 in0.0 mm